Time;durP1;ratioP1;P1;durP2;ratioP2;P2;SDS_P1;SDS_P2;PMS_P1;PMS_P2;Temp;Humidity;BMP_temperature;BMP_pressure;BME280_temperature;BME280_humidity;BME280_pressure;Samples;Min_cycle;Max_cycle;Signal;HPM_P1;HPM_P2
2022/06/10 00:01:22;;;;;;;;;;;;;;;11.88;100.00;101992.00;2613406;36;20473;-59
2022/06/10 00:03:50;;;;;;;;;;;;;;;11.89;100.00;101999.09;2613708;36;19954;-59
2022/06/10 00:06:18;;;;;;;;;;;;;;;11.97;100.00;101995.88;2613362;36;20008;-58
2022/06/10 00:08:47;;;;;;;;;;;;;;;11.99;100.00;101999.28;2613730;36;20367;-59
2022/06/10 00:11:16;;;;;;;;;;;;;;;11.87;100.00;102001.06;2613071;36;19951;-59
2022/06/10 00:13:48;;;;;;;;;;;;;;;11.87;100.00;101995.66;2613240;36;19958;-58
2022/06/10 00:19:02;;;;;;;;;;;;;;;11.89;100.00;101993.69;2615989;36;19958;-59
2022/06/10 00:21:34;;;;;;;;;;;;;;;11.83;100.00;101996.88;2617296;36;20411;-59
2022/06/10 00:24:02;;;;;;;;;;;;;;;11.82;100.00;101996.97;2613121;36;19959;-60
2022/06/10 00:26:31;;;;;;;;;;;;;;;11.81;100.00;101996.13;2613529;36;20440;-58
2022/06/10 00:29:02;;;;;;;;;;;;;;;11.71;100.00;101987.03;2613702;36;19954;-58
2022/06/10 00:31:30;;;;;;;;;;;;;;;11.80;100.00;101983.63;2612519;36;20492;-59
2022/06/10 00:33:58;;;;;;;;;;;;;;;11.79;100.00;101984.59;2613682;36;19947;-59
2022/06/10 00:36:26;;;;;;;;;;;;;;;11.79;100.00;101979.19;2613014;36;19958;-58
2022/06/10 00:38:55;;;;;;;;;;;;;;;11.80;100.00;101983.63;2614082;54;19962;-57
2022/06/10 00:41:24;;;;;;;;;;;;;;;11.69;100.00;101978.16;2612884;54;19950;-61
2022/06/10 00:43:52;;;;;;;;;;;;;;;11.67;100.00;101983.66;2613491;36;20030;-59
2022/06/10 00:46:29;;;;;;;;;;;;;;;11.69;100.00;101986.25;2613155;36;19969;-58
2022/06/10 00:48:59;;;;;;;;;;;;;;;11.73;100.00;101985.06;2613237;36;19969;-59
2022/06/10 00:54:07;;;;;;;;;;;;;;;11.75;100.00;101980.41;2612217;36;19946;-58
2022/06/10 00:59:22;;;;;;;;;;;;;;;11.77;100.00;101978.47;2618198;36;19951;-60
2022/06/10 01:01:56;;;;;;;;;;;;;;;11.85;100.00;101970.66;2614547;36;20885;-59
2022/06/10 01:04:28;;;;;;;;;;;;;;;11.84;100.00;101974.31;2614567;36;19966;31
2022/06/10 01:06:59;;;;;;;;;;;;;;;11.84;100.00;101978.88;2618791;36;20001;-58
2022/06/10 01:09:29;;;;;;;;;;;;;;;11.90;100.00;101979.25;2614172;36;19950;-59
2022/06/10 01:17:28;;;;;;;;;;;;;;;12.02;100.00;101982.00;2614059;54;20009;-58
2022/06/10 01:20:04;;;;;;;;;;;;;;;12.00;100.00;101978.56;2614073;36;19946;-59
2022/06/10 01:25:25;;;;;;;;;;;;;;;12.05;100.00;101976.38;2615531;36;19978;-58
2022/06/10 01:28:09;;;;;;;;;;;;;;;12.09;100.00;101977.88;2614187;47;19946;-60
2022/06/10 01:30:52;;;;;;;;;;;;;;;12.07;100.00;101969.91;2614752;36;20322;-58
2022/06/10 01:33:30;;;;;;;;;;;;;;;12.13;100.00;101968.56;2620571;36;19958;-58
2022/06/10 01:36:04;;;;;;;;;;;;;;;12.12;100.00;101977.63;2614208;50;19950;-59
2022/06/10 01:38:37;;;;;;;;;;;;;;;12.15;100.00;101972.00;2615310;36;21486;-58
2022/06/10 01:41:11;;;;;;;;;;;;;;;12.18;100.00;101963.66;2613904;36;19946;-59
2022/06/10 01:46:30;;;;;;;;;;;;;;;12.15;100.00;101980.09;2618284;36;20372;-58
2022/06/10 01:49:12;;;;;;;;;;;;;;;12.14;100.00;101974.81;2615846;36;20452;-58
2022/06/10 01:51:51;;;;;;;;;;;;;;;12.15;100.00;101976.53;2613361;36;19977;-58
2022/06/10 01:56:51;;;;;;;;;;;;;;;12.22;100.00;101962.44;2613429;54;19954;-59
2022/06/10 01:59:23;;;;;;;;;;;;;;;12.25;100.00;101972.16;2613838;31;19943;-58
2022/06/10 02:04:34;;;;;;;;;;;;;;;12.29;100.00;101968.19;2615678;31;19984;-59
2022/06/10 02:07:07;;;;;;;;;;;;;;;12.32;100.00;101964.41;2618761;36;20312;-58
2022/06/10 02:09:39;;;;;;;;;;;;;;;12.37;100.00;101963.06;2614132;36;20376;-59
2022/06/10 02:12:11;;;;;;;;;;;;;;;12.40;100.00;101967.38;2619849;36;19951;-59
2022/06/10 02:14:42;;;;;;;;;;;;;;;12.33;100.00;101967.00;2613338;36;19961;-58
2022/06/10 02:17:12;;;;;;;;;;;;;;;12.35;100.00;101977.66;2613704;36;19947;-60
2022/06/10 02:19:45;;;;;;;;;;;;;;;12.39;100.00;101977.31;2613916;36;19951;-59
2022/06/10 02:22:16;;;;;;;;;;;;;;;12.46;100.00;101975.00;2613794;36;19958;-58
2022/06/10 02:24:47;;;;;;;;;;;;;;;12.50;100.00;101971.06;2613148;36;19950;-58
2022/06/10 02:27:17;;;;;;;;;;;;;;;12.55;100.00;101974.25;2613673;31;20351;-59
2022/06/10 02:32:14;;;;;;;;;;;;;;;12.41;100.00;101971.78;2613122;36;19950;-57
2022/06/10 02:34:44;;;;;;;;;;;;;;;12.33;100.00;101971.53;2613943;36;20515;-59
2022/06/10 02:37:17;;;;;;;;;;;;;;;12.26;100.00;101963.94;2613826;36;19974;-59
2022/06/10 02:39:48;;;;;;;;;;;;;;;12.32;100.00;101975.22;2613464;36;19998;-58
2022/06/10 02:42:19;;;;;;;;;;;;;;;12.31;100.00;101970.78;2613160;31;20002;-57
2022/06/10 02:44:51;;;;;;;;;;;;;;;12.38;100.00;101972.91;2613897;36;19951;-58
2022/06/10 02:47:23;;;;;;;;;;;;;;;12.38;100.00;101972.91;2613934;31;19973;-58
2022/06/10 02:49:54;;;;;;;;;;;;;;;12.48;100.00;101973.00;2614241;36;19950;-58
2022/06/10 02:52:24;;;;;;;;;;;;;;;12.44;100.00;101971.56;2613531;36;19947;-59
2022/06/10 02:54:52;;;;;;;;;;;;;;;12.40;100.00;101972.78;2613371;36;19951;-59
2022/06/10 03:02:54;;;;;;;;;;;;;;;12.62;100.00;101980.88;2612980;36;19953;-59
2022/06/10 03:05:29;;;;;;;;;;;;;;;12.75;100.00;101975.38;2613756;36;20046;-60
2022/06/10 03:08:06;;;;;;;;;;;;;;;12.77;100.00;101977.94;2613830;31;20448;-59
2022/06/10 03:10:38;;;;;;;;;;;;;;;12.79;100.00;101976.84;2613308;36;19981;-60
2022/06/10 03:13:12;;;;;;;;;;;;;;;12.85;100.00;101980.88;2613606;36;20424;-60
2022/06/10 03:21:11;;;;;;;;;;;;;;;12.97;100.00;101979.06;2614351;36;20459;-60
2022/06/10 03:26:19;;;;;;;;;;;;;;;13.25;100.00;101983.06;2630829;31;20437;-59
2022/06/10 03:31:17;;;;;;;;;;;;;;;13.50;100.00;101981.06;2612675;36;19939;-58
2022/06/10 03:33:50;;;;;;;;;;;;;;;13.58;100.00;101986.69;2614599;54;19966;-60
2022/06/10 03:36:24;;;;;;;;;;;;;;;13.71;100.00;101978.41;2613113;36;20061;-59
2022/06/10 03:41:29;;;;;;;;;;;;;;;13.78;100.00;101984.13;2618622;36;19957;-60
2022/06/10 03:44:01;;;;;;;;;;;;;;;13.69;100.00;101974.94;2614827;36;19951;-59
2022/06/10 03:46:32;;;;;;;;;;;;;;;13.71;100.00;101983.81;2622190;36;20456;-58
2022/06/10 03:49:09;;;;;;;;;;;;;;;13.87;100.00;101993.31;2614817;54;19958;-59
2022/06/10 03:51:49;;;;;;;;;;;;;;;13.94;100.00;101990.00;2618498;36;19954;-58
2022/06/10 03:59:40;;;;;;;;;;;;;;;14.10;100.00;101994.09;2616011;36;20077;-59
2022/06/10 04:04:51;;;;;;;;;;;;;;;14.06;100.00;102000.75;2616858;31;20542;-59
2022/06/10 04:10:08;;;;;;;;;;;;;;;14.05;100.00;102008.00;2613298;54;19977;-59
2022/06/10 04:12:36;;;;;;;;;;;;;;;14.15;100.00;102013.50;2614650;31;19954;-61
2022/06/10 04:15:09;;;;;;;;;;;;;;;14.14;100.00;102001.81;2615565;36;20000;-59
2022/06/10 04:17:37;;;;;;;;;;;;;;;14.24;100.00;102003.75;2614250;54;19950;-57
2022/06/10 04:20:07;;;;;;;;;;;;;;;14.43;100.00;102008.41;2619608;36;19957;-58
2022/06/10 04:22:37;;;;;;;;;;;;;;;14.47;100.00;102013.44;2613351;36;20432;-60
2022/06/10 04:27:38;;;;;;;;;;;;;;;14.58;100.00;102009.78;2613496;36;19943;-59
2022/06/10 04:30:09;;;;;;;;;;;;;;;14.53;100.00;102010.19;2613877;36;19946;-59
2022/06/10 04:32:37;;;;;;;;;;;;;;;14.64;100.00;102013.84;2613269;36;19950;-59
2022/06/10 04:35:05;;;;;;;;;;;;;;;14.73;100.00;102017.59;2613108;36;19951;-60
2022/06/10 04:37:33;;;;;;;;;;;;;;;14.69;100.00;102017.00;2612794;36;19970;-59
2022/06/10 04:40:01;;;;;;;;;;;;;;;14.65;100.00;102016.41;2612680;36;19958;-58
2022/06/10 04:42:29;;;;;;;;;;;;;;;14.69;100.00;102020.59;2613386;36;19947;-62
2022/06/10 04:45:01;;;;;;;;;;;;;;;14.74;100.00;102024.72;2612809;49;19938;-61
2022/06/10 04:47:29;;;;;;;;;;;;;;;14.78;100.00;102027.06;2613255;47;19957;-61
2022/06/10 04:50:01;;;;;;;;;;;;;;;14.78;100.00;102020.75;2613591;54;19977;-59
2022/06/10 04:52:32;;;;;;;;;;;;;;;14.87;100.00;102020.81;2615498;36;19994;-60
2022/06/10 04:57:36;;;;;;;;;;;;;;;14.70;100.00;102022.28;2613500;54;19954;-58
2022/06/10 05:00:10;;;;;;;;;;;;;;;14.72;100.00;102022.16;2617448;36;19947;-58
2022/06/10 05:02:41;;;;;;;;;;;;;;;14.80;100.00;102022.34;2612660;36;19950;-60
2022/06/10 05:05:12;;;;;;;;;;;;;;;14.86;100.00;102027.22;2613965;36;19954;-59
2022/06/10 05:07:41;;;;;;;;;;;;;;;14.92;100.00;102023.09;2615947;31;19958;-59
2022/06/10 05:10:10;;;;;;;;;;;;;;;15.01;100.00;102026.84;2613169;36;20726;-59
2022/06/10 05:12:38;;;;;;;;;;;;;;;15.25;100.00;102023.78;2612268;36;20495;-59
2022/06/10 05:15:09;;;;;;;;;;;;;;;15.21;100.00;102019.66;2613636;31;19950;-59
2022/06/10 05:17:37;;;;;;;;;;;;;;;15.05;100.00;102023.72;2613742;36;19973;-60
2022/06/10 05:20:06;;;;;;;;;;;;;;;15.03;100.00;102025.72;2613080;36;19950;-61
2022/06/10 05:22:37;;;;;;;;;;;;;;;15.13;100.00;102030.31;2615749;36;19951;-59
2022/06/10 05:25:07;;;;;;;;;;;;;;;15.12;100.00;102024.06;2614349;36;20339;-62
2022/06/10 05:32:49;;;;;;;;;;;;;;;15.21;100.00;102027.78;2613607;36;20050;-62
2022/06/10 05:37:57;;;;;;;;;;;;;;;15.14;100.00;102034.75;2615706;36;19981;-60
2022/06/10 05:40:28;;;;;;;;;;;;;;;15.13;100.00;102041.16;2625966;36;20030;-57
2022/06/10 05:42:57;;;;;;;;;;;;;;;15.16;100.00;102038.19;2615518;36;19954;-58
2022/06/10 05:48:06;;;;;;;;;;;;;;;15.61;100.00;102040.44;2613892;54;20483;-59
2022/06/10 05:50:37;;;;;;;;;;;;;;;15.60;100.00;102036.00;2617088;31;19965;-58
2022/06/10 05:55:33;;;;;;;;;;;;;;;15.73;100.00;102027.59;2614240;54;19953;-59
2022/06/10 06:00:42;;;;;;;;;;;;;;;16.03;100.00;102028.50;2614230;54;19957;-58
2022/06/10 06:05:49;;;;;;;;;;;;;;;16.03;100.00;102023.94;2613725;54;20467;-58
2022/06/10 06:10:51;;;;;;;;;;;;;;;15.96;100.00;102022.78;2613261;54;19947;-61
2022/06/10 06:16:03;;;;;;;;;;;;;;;15.79;100.00;102027.06;2616454;36;19993;-58
2022/06/10 06:18:31;;;;;;;;;;;;;;;15.91;100.00;102034.06;2620780;36;19978;-59
2022/06/10 06:21:02;;;;;;;;;;;;;;;16.05;100.00;102034.66;2614445;36;20366;-58
2022/06/10 06:23:30;;;;;;;;;;;;;;;16.06;100.00;102023.66;2613671;36;19957;-59
2022/06/10 06:25:58;;;;;;;;;;;;;;;16.11;100.00;102032.22;2613824;36;19954;-60
2022/06/10 06:28:26;;;;;;;;;;;;;;;16.24;100.00;102025.63;2613073;31;19977;-59
2022/06/10 06:30:55;;;;;;;;;;;;;;;16.56;100.00;102035.28;2614173;31;19970;-58
2022/06/10 06:33:23;;;;;;;;;;;;;;;16.36;100.00;102045.34;2613705;36;19946;-59
2022/06/10 06:35:53;;;;;;;;;;;;;;;16.29;100.00;102036.91;2613664;36;19946;-58
2022/06/10 06:38:26;;;;;;;;;;;;;;;16.52;100.00;102042.00;2613350;36;20026;-59
2022/06/10 06:43:22;;;;;;;;;;;;;;;16.55;100.00;102033.56;2613195;39;20781;-59
2022/06/10 06:48:23;;;;;;;;;;;;;;;16.63;100.00;102037.25;2613336;36;19955;-60
2022/06/10 06:53:43;;;;;;;;;;;;;;;16.88;100.00;102039.53;2612731;36;20527;-58
2022/06/10 06:58:41;;;;;;;;;;;;;;;17.32;100.00;102043.31;2612778;54;19954;-61
2022/06/10 07:03:44;;;;;;;;;;;;;;;17.03;100.00;102043.47;2612272;39;20356;-58
2022/06/10 07:06:14;;;;;;;;;;;;;;;16.79;100.00;102042.09;2613547;36;19951;-58
2022/06/10 07:08:44;;;;;;;;;;;;;;;17.19;100.00;102047.41;2613261;36;19950;-58
2022/06/10 07:11:14;;;;;;;;;;;;;;;17.09;100.00;102051.03;2612828;36;20408;-59
2022/06/10 07:13:43;;;;;;;;;;;;;;;17.15;100.00;102050.44;2613565;36;19958;-59
2022/06/10 07:16:12;;;;;;;;;;;;;;;17.16;100.00;102054.84;2613762;31;19947;-59
2022/06/10 07:18:40;;;;;;;;;;;;;;;16.84;100.00;102048.94;2612707;36;19973;-58
2022/06/10 07:31:22;;;;;;;;;;;;;;;17.41;100.00;102063.31;2612761;54;20065;-61
2022/06/10 07:44:11;;;;;;;;;;;;;;;17.42;100.00;102062.31;2613771;36;19981;-63
2022/06/10 07:54:46;;;;;;;;;;;;;;;17.27;100.00;102066.53;2618055;36;20391;-59
2022/06/10 07:57:15;;;;;;;;;;;;;;;17.10;100.00;102070.94;2613188;54;19951;-59
2022/06/10 08:02:21;;;;;;;;;;;;;;;17.04;100.00;102071.53;2613796;54;19957;-58
2022/06/10 08:15:04;;;;;;;;;;;;;;;17.78;100.00;102067.81;2613003;36;19946;-63
2022/06/10 08:17:34;;;;;;;;;;;;;;;18.16;100.00;102068.56;2617429;36;19950;-66
2022/06/10 08:20:03;;;;;;;;;;;;;;;18.55;100.00;102062.75;2613684;36;19950;-61
2022/06/10 08:22:35;;;;;;;;;;;;;;;18.96;100.00;102047.69;2613573;36;20793;-60
2022/06/10 08:25:04;;;;;;;;;;;;;;;18.73;100.00;102056.41;2613053;47;20463;-60
2022/06/10 08:27:34;;;;;;;;;;;;;;;18.50;100.00;102043.28;2615111;54;19946;-67
2022/06/10 08:30:03;;;;;;;;;;;;;;;18.64;100.00;102047.31;2613400;36;19950;-58
2022/06/10 08:37:40;;;;;;;;;;;;;;;18.84;100.00;102041.63;2614098;39;20529;-66
2022/06/10 08:42:44;;;;;;;;;;;;;;;19.45;100.00;102036.97;2612573;36;20061;-58
2022/06/10 08:45:20;;;;;;;;;;;;;;;19.55;100.00;102034.97;2613598;36;20037;-58
2022/06/10 08:53:01;;;;;;;;;;;;;;;19.62;100.00;102032.41;2613059;36;19958;-58
2022/06/10 08:55:44;;;;;;;;;;;;;;;19.75;100.00;102026.47;2613169;36;19954;-61
2022/06/10 08:58:16;;;;;;;;;;;;;;;19.82;100.00;102022.06;2612946;36;19947;-59
2022/06/10 09:05:43;;;;;;;;;;;;;;;20.44;100.00;102018.81;2612755;36;20002;-57
2022/06/10 09:08:16;;;;;;;;;;;;;;;20.30;100.00;102020.38;2613245;36;19951;-62
2022/06/10 09:10:47;;;;;;;;;;;;;;;20.71;100.00;102021.34;2612471;36;19955;-62
2022/06/10 09:13:23;;;;;;;;;;;;;;;20.70;100.00;102028.72;2613376;31;19946;-59
2022/06/10 09:15:54;;;;;;;;;;;;;;;20.58;100.00;102021.84;2613295;36;19946;-64
2022/06/10 09:18:25;;;;;;;;;;;;;;;20.82;100.00;102008.16;2613555;36;19953;-64
2022/06/10 09:20:57;;;;;;;;;;;;;;;21.29;100.00;102013.75;2613918;36;19973;-61
2022/06/10 09:23:32;;;;;;;;;;;;;;;21.27;100.00;102013.09;2614595;36;20379;-62
2022/06/10 09:28:36;;;;;;;;;;;;;;;20.92;100.00;102015.28;2613948;54;19939;31
2022/06/10 09:31:08;;;;;;;;;;;;;;;20.94;100.00;102016.81;2614029;31;20411;-60
2022/06/10 09:33:41;;;;;;;;;;;;;;;20.93;100.00;102014.28;2613808;36;19950;-59
2022/06/10 09:41:10;;;;;;;;;;;;;;;20.88;100.00;102008.50;2613316;36;19950;-64
2022/06/10 09:43:51;;;;;;;;;;;;;;;21.07;100.00;102008.06;2613583;36;19951;-62
2022/06/10 09:46:30;;;;;;;;;;;;;;;20.95;100.00;102004.84;2613836;31;19946;-65
2022/06/10 09:49:12;;;;;;;;;;;;;;;21.73;100.00;101995.91;2614517;36;20058;-59
2022/06/10 09:51:43;;;;;;;;;;;;;;;21.66;100.00;102002.09;2613822;36;20042;-64
2022/06/10 09:59:12;;;;;;;;;;;;;;;22.05;100.00;102009.34;2613247;36;19951;-61
2022/06/10 10:01:42;;;;;;;;;;;;;;;21.46;100.00;102004.41;2613968;36;19953;-60
2022/06/10 10:04:23;;;;;;;;;;;;;;;21.35;100.00;102007.59;2613930;36;19951;-58
2022/06/10 10:11:54;;;;;;;;;;;;;;;21.35;100.00;102024.00;2613223;31;19954;-57
2022/06/10 10:19:31;;;;;;;;;;;;;;;20.85;100.00;102012.41;2613717;54;19947;-59
2022/06/10 10:22:04;;;;;;;;;;;;;;;20.92;100.00;102007.94;2617897;36;20442;-57
2022/06/10 10:49:37;;;;;;;;;;;;;;;20.98;100.00;102020.94;2613382;54;19955;-63
2022/06/10 10:52:16;;;;;;;;;;;;;;;21.08;100.00;102017.13;2617701;36;19954;-57
2022/06/10 10:54:45;;;;;;;;;;;;;;;21.11;100.00;102017.63;2613447;31;19954;-58
2022/06/10 11:11:49;;;;;;;;;;;;;;;21.19;100.00;102024.94;2612767;54;19946;-59
2022/06/10 11:14:23;;;;;;;;;;;;;;;21.30;100.00;102021.81;2628523;36;20466;-64
2022/06/10 11:24:18;;;;;;;;;;;;;;;21.67;100.00;102020.25;2612373;36;19946;-63
2022/06/10 11:34:18;;;;;;;;;;;;;;;21.70;100.00;102025.38;2631132;36;19999;-58
2022/06/10 11:36:47;;;;;;;;;;;;;;;21.81;100.00;102020.50;2614006;36;20329;-63
2022/06/10 11:39:18;;;;;;;;;;;;;;;21.89;100.00;102012.22;2613877;31;19958;-62
2022/06/10 11:49:26;;;;;;;;;;;;;;;21.52;100.00;102016.56;2612859;54;19954;-63
2022/06/10 12:09:32;;;;;;;;;;;;;;;24.53;100.00;102000.56;2612734;36;19974;-64
2022/06/10 12:12:03;;;;;;;;;;;;;;;24.08;100.00;101993.44;2613734;36;20438;-58
2022/06/10 12:14:34;;;;;;;;;;;;;;;23.54;100.00;101991.19;2613896;31;20344;-60
2022/06/10 12:17:03;;;;;;;;;;;;;;;23.44;100.00;101991.53;2613472;36;19978;-62
2022/06/10 12:19:33;;;;;;;;;;;;;;;23.17;100.00;101998.59;2613561;36;19946;-65
2022/06/10 12:22:02;;;;;;;;;;;;;;;23.05;100.00;101992.72;2613016;36;19950;-60
2022/06/10 12:24:33;;;;;;;;;;;;;;;23.02;100.00;101993.94;2613799;36;19954;-59
2022/06/10 12:27:02;;;;;;;;;;;;;;;23.33;100.00;101994.78;2613353;39;20335;-59
2022/06/10 12:29:37;;;;;;;;;;;;;;;22.70;100.00;101997.94;2612933;36;19989;-59
2022/06/10 12:34:51;;;;;;;;;;;;;;;24.00;100.00;101988.09;2617016;36;19943;-59
2022/06/10 12:37:26;;;;;;;;;;;;;;;24.33;100.00;101984.75;2612903;31;19969;-59
2022/06/10 12:40:00;;;;;;;;;;;;;;;22.86;100.00;101985.91;2613483;36;19950;-66
2022/06/10 12:42:32;;;;;;;;;;;;;;;23.14;100.00;101993.50;2613231;36;19947;-62
2022/06/10 12:45:02;;;;;;;;;;;;;;;22.80;100.00;101989.44;2613587;36;20738;-60
2022/06/10 12:47:32;;;;;;;;;;;;;;;22.44;100.00;102001.13;2613415;36;20460;-57
2022/06/10 12:50:01;;;;;;;;;;;;;;;22.19;100.00;102009.59;2613438;36;19954;-62
2022/06/10 12:52:39;;;;;;;;;;;;;;;22.15;100.00;102009.09;2613571;36;19946;-61
2022/06/10 12:55:19;;;;;;;;;;;;;;;22.82;100.00;101987.34;2614242;36;19954;-62
2022/06/10 12:57:48;;;;;;;;;;;;;;;24.16;100.00;101988.84;2614172;36;20444;-64
2022/06/10 13:00:31;;;;;;;;;;;;;;;24.74;100.00;101992.25;2614051;36;19951;-62
2022/06/10 13:03:18;;;;;;;;;;;;;;;23.96;100.00;101992.28;2614465;36;20526;-62
2022/06/10 13:05:48;;;;;;;;;;;;;;;24.48;100.00;101980.00;2614886;36;19954;-63
2022/06/10 13:08:30;;;;;;;;;;;;;;;25.10;100.00;101982.03;2614306;36;20436;-59
2022/06/10 13:13:29;;;;;;;;;;;;;;;23.86;100.00;101989.03;2613543;36;19974;-62
2022/06/10 13:15:59;;;;;;;;;;;;;;;23.80;100.00;101991.47;2614053;36;20038;-62
2022/06/10 13:18:31;;;;;;;;;;;;;;;23.46;100.00;101994.09;2616033;36;20465;-61
2022/06/10 13:21:07;;;;;;;;;;;;;;;23.16;100.00;101994.13;2614098;36;19956;-59
2022/06/10 13:23:52;;;;;;;;;;;;;;;22.99;100.00;102005.31;2614264;36;19958;-60
2022/06/10 13:26:21;;;;;;;;;;;;;;;22.76;100.00;101988.94;2617314;36;19950;-63
2022/06/10 13:28:52;;;;;;;;;;;;;;;23.90;100.00;101995.84;2613706;39;20207;-62
2022/06/10 13:31:24;;;;;;;;;;;;;;;23.69;100.00;101991.16;2618791;36;20337;-59
2022/06/10 13:33:57;;;;;;;;;;;;;;;23.59;100.00;101996.97;2614289;36;19950;-63
2022/06/10 13:36:26;;;;;;;;;;;;;;;23.38;100.00;101995.91;2613873;36;19951;-59
2022/06/10 13:46:26;;;;;;;;;;;;;;;24.43;100.00;101990.75;2615390;36;19947;-61
2022/06/10 13:51:39;;;;;;;;;;;;;;;24.05;100.00;101999.34;2613944;54;19965;-59
2022/06/10 13:54:18;;;;;;;;;;;;;;;23.83;100.00;102000.38;2613629;36;19958;-63
2022/06/10 13:59:25;;;;;;;;;;;;;;;25.47;100.00;101996.41;2613282;36;20108;-59
2022/06/10 14:01:57;;;;;;;;;;;;;;;24.54;100.00;101994.00;2613818;36;19962;-58
2022/06/10 14:04:27;;;;;;;;;;;;;;;24.31;100.00;102003.38;2613815;36;19974;-65
2022/06/10 14:09:27;;;;;;;;;;;;;;;24.19;100.00;102000.31;2613022;54;20076;-60
2022/06/10 14:24:33;;;;;;;;;;;;;;;24.58;100.00;101985.13;2613439;36;19946;-63
2022/06/10 14:55:03;;;;;;;;;;;;;;;22.84;100.00;101985.28;2612718;54;20429;-65
2022/06/10 14:57:34;;;;;;;;;;;;;;;22.85;100.00;101984.22;2614030;36;20488;-60
2022/06/10 15:40:42;;;;;;;;;;;;;;;22.70;100.00;101987.81;2613007;36;19947;-59
2022/06/10 15:52:39;;;;;;;;;;;;;;;23.17;100.00;101960.16;2614629;36;19981;-66
2022/06/10 16:02:58;;;;;;;;;;;;;;;22.38;100.00;101964.34;2612657;47;19939;-61
2022/06/10 16:05:28;;;;;;;;;;;;;;;22.10;100.00;101972.28;2613331;36;19957;-60
2022/06/10 16:15:27;;;;;;;;;;;;;;;21.67;100.00;101972.81;2612736;54;19956;-60
2022/06/10 16:25:21;;;;;;;;;;;;;;;21.87;100.00;101959.47;2619074;36;20482;-62
2022/06/10 16:27:56;;;;;;;;;;;;;;;22.01;100.00;101966.91;2613203;36;19958;-59
2022/06/10 16:30:28;;;;;;;;;;;;;;;22.10;100.00;101966.81;2612964;36;19961;-62
2022/06/10 16:40:25;;;;;;;;;;;;;;;21.93;100.00;101966.13;2612651;36;20395;-60
2022/06/10 16:42:54;;;;;;;;;;;;;;;21.82;100.00;101961.91;2613305;36;19973;-59
2022/06/10 16:45:23;;;;;;;;;;;;;;;21.76;100.00;101965.38;2613295;36;20504;-63
2022/06/10 16:47:55;;;;;;;;;;;;;;;21.63;100.00;101972.34;2613754;36;19950;-60
2022/06/10 16:50:24;;;;;;;;;;;;;;;21.45;100.00;101963.50;2613215;36;19957;-60
2022/06/10 16:52:52;;;;;;;;;;;;;;;21.64;100.00;101964.97;2613627;36;20344;-60
2022/06/10 16:55:21;;;;;;;;;;;;;;;21.73;100.00;101966.63;2613106;36;20035;-61
2022/06/10 16:57:51;;;;;;;;;;;;;;;21.68;100.00;101966.31;2613308;36;19947;-64
2022/06/10 17:00:21;;;;;;;;;;;;;;;21.63;100.00;101964.13;2613243;36;20004;-63
2022/06/10 17:02:51;;;;;;;;;;;;;;;21.50;100.00;101958.38;2613574;36;19958;-60
2022/06/10 17:12:57;;;;;;;;;;;;;;;21.05;100.00;101968.19;2612767;36;19970;-58
2022/06/10 17:15:26;;;;;;;;;;;;;;;21.11;100.00;101970.22;2613499;36;19975;-59
2022/06/10 17:17:55;;;;;;;;;;;;;;;21.03;100.00;101964.81;2613656;36;19950;-59
2022/06/10 17:35:21;;;;;;;;;;;;;;;21.35;100.00;101959.13;2611920;54;19989;-58
2022/06/10 17:37:51;;;;;;;;;;;;;;;21.32;100.00;101964.13;2613312;36;19950;-58
2022/06/10 17:47:53;;;;;;;;;;;;;;;21.38;100.00;101957.94;2613538;54;20082;-61
2022/06/10 17:50:27;;;;;;;;;;;;;;;21.35;100.00;101956.41;2613315;36;19946;-59
2022/06/10 17:52:55;;;;;;;;;;;;;;;21.42;100.00;101959.28;2614224;31;20069;-62
2022/06/10 17:55:24;;;;;;;;;;;;;;;21.41;100.00;101960.31;2613430;36;19947;-64
2022/06/10 17:57:53;;;;;;;;;;;;;;;21.58;100.00;101961.06;2614083;36;19967;-58
2022/06/10 18:00:25;;;;;;;;;;;;;;;21.37;100.00;101958.09;2614032;36;19947;-61
2022/06/10 18:17:54;;;;;;;;;;;;;;;21.38;100.00;101962.53;2613391;54;19950;-66
2022/06/10 18:20:24;;;;;;;;;;;;;;;21.26;100.00;101954.75;2614108;36;20437;-56
2022/06/10 18:27:52;;;;;;;;;;;;;;;20.83;100.00;101959.72;2613211;39;20381;-64
2022/06/10 18:30:22;;;;;;;;;;;;;;;20.88;100.00;101962.81;2613195;36;19950;-61
2022/06/10 18:42:56;;;;;;;;;;;;;;;20.64;100.00;101948.16;2620497;36;19954;-61
2022/06/10 18:45:26;;;;;;;;;;;;;;;20.58;100.00;101945.25;2620432;36;19946;-60
2022/06/10 18:47:55;;;;;;;;;;;;;;;20.52;100.00;101952.28;2614206;36;19961;-58
2022/06/10 18:50:26;;;;;;;;;;;;;;;20.56;100.00;101958.28;2613677;36;20374;-65
2022/06/10 18:52:57;;;;;;;;;;;;;;;20.42;100.00;101957.09;2618372;36;20333;-58
2022/06/10 18:55:29;;;;;;;;;;;;;;;20.49;100.00;101947.16;2615067;39;20348;-58
2022/06/10 19:00:33;;;;;;;;;;;;;;;20.59;100.00;101958.75;2615735;36;19993;-65
2022/06/10 19:05:35;;;;;;;;;;;;;;;20.63;100.00;101948.34;2615482;36;20527;-58
2022/06/10 19:08:05;;;;;;;;;;;;;;;20.54;100.00;101954.84;2614143;36;19982;-57
2022/06/10 19:10:36;;;;;;;;;;;;;;;20.53;100.00;101950.44;2613195;36;20482;-59
2022/06/10 19:13:05;;;;;;;;;;;;;;;20.46;100.00;101961.19;2624401;36;20037;-66
2022/06/10 19:15:39;;;;;;;;;;;;;;;20.46;100.00;101953.00;2613577;36;19969;-60
2022/06/10 19:18:09;;;;;;;;;;;;;;;20.54;100.00;101952.97;2620619;36;19957;-59
2022/06/10 19:20:39;;;;;;;;;;;;;;;20.25;100.00;101954.41;2615490;31;19955;-59
2022/06/10 19:23:09;;;;;;;;;;;;;;;20.10;100.00;101961.63;2613798;36;19950;-65
2022/06/10 19:25:40;;;;;;;;;;;;;;;19.95;100.00;101956.00;2612981;36;20444;-58
2022/06/10 19:30:33;;;;;;;;;;;;;;;20.06;100.00;101958.34;2614735;36;19950;-60
2022/06/10 19:33:07;;;;;;;;;;;;;;;19.99;100.00;101962.78;2613389;36;19950;-58
2022/06/10 19:38:17;;;;;;;;;;;;;;;19.86;100.00;101973.38;2612592;36;20054;-59
2022/06/10 19:40:48;;;;;;;;;;;;;;;19.68;100.00;101970.78;2612962;47;19946;-58
2022/06/10 19:43:20;;;;;;;;;;;;;;;19.62;100.00;101977.78;2617969;31;20046;-64
2022/06/10 19:45:49;;;;;;;;;;;;;;;19.62;100.00;101977.78;2614017;36;20025;-61
2022/06/10 19:48:22;;;;;;;;;;;;;;;19.50;100.00;101974.53;2613626;36;19954;-60
2022/06/10 20:08:27;;;;;;;;;;;;;;;19.18;100.00;101992.50;2612183;36;20443;-60
2022/06/10 20:26:14;;;;;;;;;;;;;;;18.62;100.00;101991.22;2613032;36;20399;-59
2022/06/10 20:33:40;;;;;;;;;;;;;;;18.45;100.00;101996.56;2611907;54;20429;-60
2022/06/10 20:36:10;;;;;;;;;;;;;;;18.46;100.00;101987.38;2612866;31;20544;-60
2022/06/10 20:38:39;;;;;;;;;;;;;;;18.37;100.00;101993.78;2613113;36;19954;-59
2022/06/10 20:41:07;;;;;;;;;;;;;;;18.28;100.00;102000.19;2612936;36;19955;-58
2022/06/10 20:46:26;;;;;;;;;;;;;;;18.13;100.00;101995.31;2619879;36;19950;-59
2022/06/10 20:48:54;;;;;;;;;;;;;;;17.97;100.00;101997.91;2613836;36;19965;-59
2022/06/10 20:51:24;;;;;;;;;;;;;;;17.97;100.00;102000.63;2613389;36;19973;-58
2022/06/10 20:53:52;;;;;;;;;;;;;;;17.88;100.00;101996.09;2612960;36;20459;-58
2022/06/10 20:56:21;;;;;;;;;;;;;;;17.84;100.00;101990.97;2612719;36;19954;-58
2022/06/10 20:58:52;;;;;;;;;;;;;;;17.74;100.00;101992.91;2613701;36;20403;-59
2022/06/10 21:01:22;;;;;;;;;;;;;;;17.67;100.00;101978.22;2613121;36;19955;-58
2022/06/10 21:11:31;;;;;;;;;;;;;;;17.52;100.00;101992.34;2612566;36;19947;-59
2022/06/10 21:54:18;;;;;;;;;;;;;;;16.41;100.00;102000.41;2616965;36;21327;-60
2022/06/10 21:56:47;;;;;;;;;;;;;;;16.34;100.00;101999.31;2614044;36;20082;-61
2022/06/10 22:06:40;;;;;;;;;;;;;;;16.24;100.00;101999.31;2613439;36;19960;-58
2022/06/10 22:09:27;;;;;;;;;;;;;;;16.19;100.00;102012.47;2616655;36;20352;-58
2022/06/10 22:11:58;;;;;;;;;;;;;;;16.23;100.00;102002.19;2619325;31;20384;-61
2022/06/10 22:14:27;;;;;;;;;;;;;;;16.17;100.00;102002.78;2613839;36;19977;-59